createdAt,value
2018-02-07T00:01:01.069Z,24.70
2018-02-07T00:03:27.727Z,19.42
2018-02-07T00:05:54.386Z,19.70
2018-02-07T00:08:21.027Z,21.30
2018-02-07T00:10:47.673Z,19.12
2018-02-07T00:13:14.328Z,22.70
2018-02-07T00:15:40.976Z,20.45
2018-02-07T00:18:07.635Z,17.80
2018-02-07T00:20:34.278Z,22.77
2018-02-07T00:23:00.922Z,18.62
2018-02-07T00:25:27.568Z,19.15
2018-02-07T00:27:54.212Z,22.67
2018-02-07T00:30:20.852Z,16.98
2018-02-07T00:32:47.491Z,17.90
2018-02-07T00:35:14.127Z,19.55
2018-02-07T00:37:40.782Z,17.58
2018-02-07T00:40:07.436Z,19.65
2018-02-07T00:42:34.118Z,21.15
2018-02-07T00:45:00.775Z,16.77
2018-02-07T00:47:27.417Z,20.40
2018-02-07T00:49:54.100Z,18.35
2018-02-07T00:52:20.764Z,19.52
2018-02-07T00:54:47.419Z,22.33
2018-02-07T00:57:14.074Z,18.00
2018-02-07T00:59:40.709Z,17.10
2018-02-07T01:02:07.378Z,17.80
2018-02-07T01:04:34.032Z,19.00
2018-02-07T01:07:00.675Z,19.62
2018-02-07T01:09:27.325Z,21.40
2018-02-07T01:11:53.980Z,26.90
2018-02-07T01:14:20.624Z,18.27
2018-02-07T01:16:47.255Z,17.85
2018-02-07T01:19:13.900Z,21.10
2018-02-07T01:21:40.536Z,20.92
2018-02-07T01:24:07.174Z,19.73
2018-02-07T01:26:33.829Z,20.90
2018-02-07T01:29:00.475Z,21.42
2018-02-07T01:31:27.107Z,15.80
2018-02-07T01:33:53.753Z,18.80
2018-02-07T01:36:20.385Z,17.98
2018-02-07T01:38:47.022Z,19.52
2018-02-07T01:41:13.658Z,19.35
2018-02-07T01:43:40.320Z,19.25
2018-02-07T01:46:06.983Z,17.58
2018-02-07T01:48:33.646Z,16.77
2018-02-07T01:51:00.288Z,18.45
2018-02-07T01:53:26.954Z,15.48
2018-02-07T01:55:53.587Z,16.87
2018-02-07T01:58:20.231Z,15.27
2018-02-07T02:00:46.866Z,16.30
2018-02-07T02:03:13.509Z,16.90
2018-02-07T02:05:40.199Z,17.17
2018-02-07T02:08:06.854Z,16.73
2018-02-07T02:10:33.493Z,16.98
2018-02-07T02:13:00.139Z,19.67
2018-02-07T02:15:26.775Z,17.83
2018-02-07T02:17:53.412Z,16.95
2018-02-07T02:20:20.076Z,18.27
2018-02-07T02:22:46.715Z,24.27
2018-02-07T02:25:13.348Z,15.30
2018-02-07T02:27:40.008Z,17.70
2018-02-07T02:30:06.680Z,19.50
2018-02-07T02:32:33.335Z,19.67
2018-02-07T02:35:00.038Z,20.23
2018-02-07T02:37:26.634Z,16.12
2018-02-07T02:39:53.288Z,17.10
2018-02-07T02:42:19.920Z,18.67
2018-02-07T02:44:46.619Z,16.45
2018-02-07T02:47:13.265Z,18.10
2018-02-07T02:49:39.931Z,17.98
2018-02-07T02:52:06.572Z,17.80
2018-02-07T02:54:33.259Z,17.40
2018-02-07T02:56:59.907Z,19.27
2018-02-07T02:59:26.576Z,18.00
2018-02-07T03:01:53.222Z,17.83
2018-02-07T03:04:19.858Z,15.43
2018-02-07T03:06:46.504Z,17.17
2018-02-07T03:09:13.139Z,15.82
2018-02-07T03:11:39.792Z,16.27
2018-02-07T03:14:06.541Z,17.70
2018-02-07T03:16:33.228Z,15.27
2018-02-07T03:18:59.880Z,15.82
2018-02-07T03:21:26.557Z,16.45
2018-02-07T03:23:53.199Z,19.35
2018-02-07T03:26:19.886Z,15.38
2018-02-07T03:28:46.543Z,16.87
2018-02-07T03:31:13.187Z,18.45
2018-02-07T03:33:39.882Z,16.75
2018-02-07T03:36:06.560Z,15.52
2018-02-07T03:38:33.199Z,17.50
2018-02-07T03:40:59.882Z,14.23
2018-02-07T03:43:26.538Z,16.98
2018-02-07T03:45:53.187Z,18.52
2018-02-07T03:48:19.913Z,17.98
2018-02-07T03:50:46.556Z,18.73
2018-02-07T03:53:13.201Z,21.73
2018-02-07T03:55:39.851Z,16.92
2018-02-07T03:58:06.488Z,15.32
2018-02-07T04:00:33.135Z,16.30
2018-02-07T04:02:59.771Z,15.30
2018-02-07T04:05:26.406Z,15.77
2018-02-07T04:07:53.063Z,15.82
2018-02-07T04:10:19.731Z,18.98
2018-02-07T04:12:46.395Z,17.05
2018-02-07T04:15:13.034Z,15.75
2018-02-07T04:17:39.683Z,18.45
2018-02-07T04:20:06.331Z,16.92
2018-02-07T04:22:32.997Z,18.95
2018-02-07T04:24:59.633Z,14.57
2018-02-07T04:27:26.287Z,14.20
2018-02-07T04:29:52.927Z,16.37
2018-02-07T04:32:19.606Z,17.27
2018-02-07T04:34:46.259Z,16.80
2018-02-07T04:37:12.924Z,18.37
2018-02-07T04:39:39.561Z,13.75
2018-02-07T04:42:06.259Z,20.50
2018-02-07T04:44:32.949Z,18.70
2018-02-07T04:46:59.588Z,17.95
2018-02-07T04:49:26.238Z,17.85
2018-02-07T04:51:53.782Z,15.93
2018-02-07T04:54:20.424Z,20.62
2018-02-07T04:56:47.072Z,17.87
2018-02-07T04:59:13.711Z,18.08
2018-02-07T05:01:40.354Z,17.10
2018-02-07T05:04:07.040Z,14.10
2018-02-07T05:06:33.682Z,17.65
2018-02-07T05:09:00.347Z,16.83
2018-02-07T05:11:26.980Z,17.95
2018-02-07T05:13:53.635Z,21.17
2018-02-07T05:16:20.262Z,18.25
2018-02-07T05:18:46.922Z,19.27
2018-02-07T05:21:13.560Z,18.12
2018-02-07T05:23:40.191Z,17.62
2018-02-07T05:26:06.873Z,15.60
2018-02-07T05:28:33.530Z,18.12
2018-02-07T05:31:00.185Z,20.37
2018-02-07T05:33:26.872Z,17.80
2018-02-07T05:35:53.504Z,17.85
2018-02-07T05:38:20.186Z,19.73
2018-02-07T05:40:46.822Z,18.27
2018-02-07T05:43:13.654Z,16.10
2018-02-07T05:45:40.319Z,17.55
2018-02-07T05:48:06.959Z,21.17
2018-02-07T05:50:33.597Z,18.27
2018-02-07T05:53:00.236Z,18.10
2018-02-07T05:55:26.877Z,18.35
2018-02-07T05:57:53.510Z,21.15
2018-02-07T06:00:20.162Z,17.62
2018-02-07T06:02:46.796Z,16.33
2018-02-07T06:05:13.434Z,16.77
2018-02-07T06:07:40.069Z,20.77
2018-02-07T06:10:06.702Z,17.33
2018-02-07T06:12:33.339Z,18.77
2018-02-07T06:14:59.972Z,20.23
2018-02-07T06:17:26.619Z,17.85
2018-02-07T06:19:53.254Z,19.67
2018-02-07T06:22:19.896Z,19.20
2018-02-07T06:24:46.531Z,18.85
2018-02-07T06:27:13.173Z,21.02
2018-02-07T06:29:39.835Z,20.33
2018-02-07T06:32:06.485Z,17.42
2018-02-07T06:34:33.157Z,18.85
2018-02-07T06:36:59.805Z,16.62
2018-02-07T06:39:26.457Z,18.35
2018-02-07T06:41:53.094Z,19.62
2018-02-07T06:44:19.734Z,18.77
2018-02-07T06:46:46.371Z,16.50
2018-02-07T06:49:13.011Z,18.12
2018-02-07T06:51:39.655Z,19.48
2018-02-07T06:54:06.292Z,19.48
2018-02-07T06:56:32.928Z,19.60
2018-02-07T06:58:59.569Z,18.92
2018-02-07T07:01:26.231Z,18.83
2018-02-07T07:03:52.879Z,16.83
2018-02-07T07:06:19.545Z,21.33
2018-02-07T07:08:46.184Z,19.25
2018-02-07T07:11:12.838Z,18.90
2018-02-07T07:13:39.480Z,23.55
2018-02-07T07:16:06.128Z,24.65
2018-02-07T07:18:32.891Z,26.50
2018-02-07T07:20:59.576Z,21.05
2018-02-07T07:23:26.244Z,20.12
2018-02-07T07:25:52.897Z,25.58
2018-02-07T07:28:19.528Z,23.23
2018-02-07T07:30:46.177Z,19.73
2018-02-07T07:33:12.820Z,21.08
2018-02-07T07:35:39.495Z,27.13
2018-02-07T07:38:06.134Z,26.83
2018-02-07T07:40:32.783Z,24.08
2018-02-07T07:42:59.423Z,20.45
2018-02-07T07:45:26.078Z,26.67
2018-02-07T07:47:52.715Z,27.60
2018-02-07T07:50:19.374Z,25.85
2018-02-07T07:52:46.036Z,23.23
2018-02-07T07:55:12.678Z,16.85
2018-02-07T07:57:39.331Z,22.85
2018-02-07T08:00:05.983Z,21.75
2018-02-07T08:02:32.644Z,24.10
2018-02-07T08:04:59.296Z,23.40
2018-02-07T08:07:25.942Z,24.55
2018-02-07T08:09:52.575Z,28.75
2018-02-07T08:12:19.232Z,22.77
2018-02-07T08:14:45.882Z,22.27
2018-02-07T08:17:12.548Z,26.52
2018-02-07T08:19:39.208Z,24.30
2018-02-07T08:22:05.863Z,25.00
2018-02-07T08:24:32.501Z,23.02
2018-02-07T08:26:59.154Z,23.35
2018-02-07T08:29:25.788Z,22.67
2018-02-07T08:31:52.450Z,22.50
2018-02-07T08:34:19.103Z,25.00
2018-02-07T08:36:45.751Z,26.10
2018-02-07T08:39:12.404Z,25.55
2018-02-07T08:41:39.068Z,21.35
2018-02-07T08:44:05.712Z,25.52
2018-02-07T08:46:32.347Z,24.65
2018-02-07T08:48:58.986Z,23.73
2018-02-07T08:51:25.624Z,25.88
2018-02-07T08:53:52.441Z,24.33
2018-02-07T08:56:19.082Z,23.75
2018-02-07T08:58:45.742Z,25.85
2018-02-07T09:01:12.380Z,25.30
2018-02-07T09:03:39.904Z,23.05
2018-02-07T09:06:06.635Z,25.85
2018-02-07T09:08:33.287Z,24.45
2018-02-07T09:11:00.020Z,23.45
2018-02-07T09:13:26.678Z,21.17
2018-02-07T09:15:53.317Z,24.30
2018-02-07T09:18:19.997Z,23.38
2018-02-07T09:20:46.647Z,24.40
2018-02-07T09:23:13.309Z,26.20
2018-02-07T09:25:39.951Z,25.00
2018-02-07T09:28:06.614Z,25.02
2018-02-07T09:30:33.266Z,24.05
2018-02-07T09:32:59.946Z,24.80
2018-02-07T09:35:26.599Z,22.98
2018-02-07T09:37:53.252Z,25.75
2018-02-07T09:40:19.918Z,26.52
2018-02-07T09:42:46.578Z,26.55
2018-02-07T09:45:13.223Z,31.87
2018-02-07T09:47:39.891Z,24.58
2018-02-07T09:50:06.547Z,22.60
2018-02-07T09:52:33.182Z,26.05
2018-02-07T09:54:59.825Z,23.05
2018-02-07T09:57:26.459Z,24.60
2018-02-07T09:59:53.124Z,24.00
2018-02-07T10:02:19.770Z,23.15
2018-02-07T10:04:46.426Z,21.40
2018-02-07T10:07:13.066Z,25.45
2018-02-07T10:09:39.724Z,25.88
2018-02-07T10:12:06.373Z,24.05
2018-02-07T10:14:33.030Z,22.73
2018-02-07T10:16:59.671Z,27.23
2018-02-07T10:19:26.330Z,24.12
2018-02-07T10:21:52.967Z,23.60
2018-02-07T10:24:19.618Z,23.15
2018-02-07T10:26:46.255Z,24.37
2018-02-07T10:29:12.971Z,24.17
2018-02-07T10:31:39.578Z,28.30
2018-02-07T10:34:06.233Z,26.45
2018-02-07T10:36:32.875Z,23.65
2018-02-07T10:38:59.527Z,23.42
2018-02-07T10:41:26.174Z,22.77
2018-02-07T10:43:52.970Z,21.37
2018-02-07T10:46:19.654Z,23.30
2018-02-07T10:48:46.293Z,23.50
2018-02-07T10:51:12.933Z,25.02
2018-02-07T10:53:39.572Z,23.67
2018-02-07T10:56:06.233Z,23.85
2018-02-07T10:58:32.904Z,23.60
2018-02-07T11:00:59.549Z,23.40
2018-02-07T11:03:26.226Z,22.87
2018-02-07T11:05:52.862Z,42.25
2018-02-07T11:08:19.505Z,25.55
2018-02-07T11:10:46.204Z,22.62
2018-02-07T11:13:12.865Z,22.40
2018-02-07T11:15:39.573Z,24.77
2018-02-07T11:18:06.215Z,23.30
2018-02-07T11:20:32.870Z,22.62
2018-02-07T11:22:59.536Z,25.98
2018-02-07T11:25:26.228Z,24.45
2018-02-07T11:27:52.913Z,23.40
2018-02-07T11:30:19.569Z,22.25
2018-02-07T11:32:46.288Z,23.17
2018-02-07T11:35:12.936Z,22.17
2018-02-07T11:37:39.609Z,23.67
2018-02-07T11:40:06.262Z,42.70
2018-02-07T11:42:32.917Z,25.42
2018-02-07T11:44:59.579Z,21.80
2018-02-07T11:47:26.218Z,24.75
2018-02-07T11:49:52.880Z,22.67
2018-02-07T11:52:19.527Z,25.15
2018-02-07T11:54:46.178Z,24.37
2018-02-07T11:57:12.840Z,43.20
2018-02-07T11:59:39.512Z,22.13
2018-02-07T12:02:06.156Z,19.48
2018-02-07T12:04:32.848Z,25.65
2018-02-07T12:06:59.503Z,21.80
2018-02-07T12:09:26.167Z,20.80
2018-02-07T12:11:52.923Z,22.33
2018-02-07T12:14:19.568Z,19.98
2018-02-07T12:16:46.227Z,23.42
2018-02-07T12:19:12.879Z,23.85
2018-02-07T12:21:39.537Z,23.45
2018-02-07T12:24:06.173Z,23.23
2018-02-07T12:26:32.834Z,21.60
2018-02-07T12:28:59.473Z,22.35
2018-02-07T12:31:26.117Z,25.48
2018-02-07T12:33:52.807Z,25.42
2018-02-07T12:36:19.706Z,22.45
2018-02-07T12:38:46.392Z,24.98
2018-02-07T12:41:13.098Z,21.25
2018-02-07T12:43:39.730Z,22.50
2018-02-07T12:46:06.428Z,23.40
2018-02-07T12:48:33.516Z,24.42
2018-02-07T12:51:00.164Z,21.30
2018-02-07T12:53:26.802Z,25.95
2018-02-07T12:55:53.446Z,22.27
2018-02-07T12:58:20.119Z,25.20
2018-02-07T13:00:46.762Z,24.98
2018-02-07T13:03:13.416Z,24.05
2018-02-07T13:05:40.072Z,25.30
2018-02-07T13:08:06.747Z,24.02
2018-02-07T13:10:33.400Z,24.42
2018-02-07T13:13:00.068Z,24.10
2018-02-07T13:15:26.725Z,22.95
2018-02-07T13:17:53.392Z,25.23
2018-02-07T13:20:20.047Z,24.95
2018-02-07T13:22:47.615Z,24.48
2018-02-07T13:25:14.268Z,23.17
2018-02-07T13:27:40.912Z,23.55
2018-02-07T13:32:51.707Z,22.67
2018-02-07T13:35:18.356Z,27.27
2018-02-07T13:37:45.018Z,24.70
2018-02-07T13:40:11.659Z,25.80
2018-02-07T13:42:38.297Z,25.55
2018-02-07T13:45:04.936Z,28.40
2018-02-07T13:47:31.622Z,24.90
2018-02-07T13:49:59.537Z,24.37
2018-02-07T13:52:26.567Z,27.50
2018-02-07T13:54:53.271Z,27.87
2018-02-07T13:57:19.925Z,26.80
2018-02-07T13:59:46.591Z,24.92
2018-02-07T14:02:13.259Z,28.05
2018-02-07T14:04:40.022Z,25.08
2018-02-07T14:07:06.674Z,28.40
2018-02-07T14:09:33.340Z,26.33
2018-02-07T14:11:59.984Z,27.27
2018-02-07T14:14:26.657Z,30.90
2018-02-07T14:16:53.295Z,25.75
2018-02-07T14:19:19.964Z,24.50
2018-02-07T14:21:46.638Z,27.42
2018-02-07T14:24:13.425Z,28.12
2018-02-07T14:26:40.067Z,25.12
2018-02-07T14:29:06.753Z,24.92
2018-02-07T14:31:33.383Z,25.30
2018-02-07T14:34:00.042Z,28.50
2018-02-07T14:36:26.691Z,29.55
2018-02-07T14:38:53.400Z,28.67
2018-02-07T14:41:20.066Z,28.00
2018-02-07T14:43:46.698Z,26.60
2018-02-07T14:46:13.360Z,30.30
2018-02-07T14:48:40.012Z,27.42
2018-02-07T14:51:06.675Z,28.70
2018-02-07T14:53:33.660Z,27.92
2018-02-07T14:56:00.381Z,30.73
2018-02-07T14:58:27.055Z,29.23
2018-02-07T15:00:53.726Z,29.15
2018-02-07T15:03:20.374Z,26.40
2018-02-07T15:05:47.063Z,31.70
2018-02-07T15:08:13.740Z,32.35
2018-02-07T15:10:40.426Z,28.87
2018-02-07T15:13:07.063Z,28.67
2018-02-07T15:15:33.694Z,25.70
2018-02-07T15:18:00.366Z,27.50
2018-02-07T15:20:27.012Z,26.55
2018-02-07T15:22:53.847Z,25.75
2018-02-07T15:25:21.526Z,25.17
2018-02-07T15:27:48.593Z,26.77
2018-02-07T15:30:15.348Z,30.85
2018-02-07T15:32:42.217Z,25.80
2018-02-07T15:35:09.118Z,27.85
2018-02-07T15:37:36.221Z,28.77
2018-02-07T15:40:03.149Z,25.85
2018-02-07T15:42:29.825Z,28.50
2018-02-07T15:44:56.523Z,27.50
2018-02-07T15:47:23.597Z,29.50
2018-02-07T15:49:50.561Z,25.83
2018-02-07T15:52:17.278Z,30.27
2018-02-07T15:54:44.387Z,32.58
2018-02-07T15:57:11.054Z,29.63
2018-02-07T15:59:37.716Z,32.05
2018-02-07T16:02:04.619Z,30.15
2018-02-07T16:04:31.335Z,33.80
2018-02-07T16:06:58.410Z,31.37
2018-02-07T16:09:25.432Z,36.28
2018-02-07T16:11:52.154Z,31.02
2018-02-07T16:14:18.845Z,27.50
2018-02-07T16:16:45.494Z,30.60
2018-02-07T16:19:12.139Z,33.25
2018-02-07T16:21:39.524Z,31.25
2018-02-07T16:24:06.187Z,30.27
2018-02-07T16:26:34.996Z,30.05
2018-02-07T16:29:01.895Z,28.83
2018-02-07T16:31:29.017Z,32.63
2018-02-07T16:33:55.862Z,31.90
2018-02-07T16:36:22.779Z,31.48
2018-02-07T16:38:49.439Z,34.83
2018-02-07T16:41:16.323Z,29.85
2018-02-07T16:43:44.047Z,32.22
2018-02-07T16:46:10.971Z,28.87
2018-02-07T16:48:37.837Z,33.25
2018-02-07T16:51:04.797Z,32.42
2018-02-07T16:53:31.877Z,34.55
2018-02-07T16:55:58.791Z,34.80
2018-02-07T16:58:25.742Z,30.80
2018-02-07T17:00:52.644Z,31.73
2018-02-07T17:03:19.285Z,32.58
2018-02-07T17:05:46.019Z,30.92
2018-02-07T17:08:13.035Z,32.30
2018-02-07T17:10:40.117Z,31.27
2018-02-07T17:13:07.005Z,28.40
2018-02-07T17:15:34.002Z,32.78
2018-02-07T17:18:00.634Z,34.65
2018-02-07T17:20:27.281Z,30.92
2018-02-07T17:22:53.922Z,32.15
2018-02-07T17:25:20.563Z,31.65
2018-02-07T17:27:47.204Z,31.98
2018-02-07T17:30:13.969Z,33.78
2018-02-07T17:32:40.618Z,31.50
2018-02-07T17:35:07.630Z,26.67
2018-02-07T17:37:34.395Z,29.95
2018-02-07T17:40:01.033Z,30.58
2018-02-07T17:42:27.725Z,31.77
2018-02-07T17:44:54.358Z,28.52
2018-02-07T17:47:21.465Z,31.67
2018-02-07T17:49:48.389Z,33.53
2018-02-07T17:52:15.356Z,31.90
2018-02-07T17:54:42.030Z,32.75
2018-02-07T17:57:08.971Z,29.83
2018-02-07T17:59:35.934Z,30.77
2018-02-07T18:02:02.645Z,31.23
2018-02-07T18:04:29.531Z,28.70
2018-02-07T18:06:56.545Z,34.85
2018-02-07T18:09:23.560Z,32.33
2018-02-07T18:11:50.292Z,35.83
2018-02-07T18:14:16.931Z,37.40
2018-02-07T18:16:43.575Z,29.42
2018-02-07T18:19:10.258Z,35.38
2018-02-07T18:21:36.940Z,31.42
2018-02-07T18:24:03.598Z,36.42
2018-02-07T18:26:30.241Z,35.95
2018-02-07T18:28:56.899Z,31.58
2018-02-07T18:31:23.539Z,36.13
2018-02-07T18:33:50.191Z,33.70
2018-02-07T18:36:16.843Z,31.42
2018-02-07T18:38:43.493Z,33.03
2018-02-07T18:41:10.149Z,32.83
2018-02-07T18:43:36.805Z,35.88
2018-02-07T18:46:03.473Z,37.05
2018-02-07T18:48:30.157Z,35.00
2018-02-07T18:50:56.790Z,30.75
2018-02-07T18:53:23.486Z,37.33
2018-02-07T18:55:50.097Z,34.78
2018-02-07T18:58:16.749Z,34.75
2018-02-07T19:00:43.382Z,31.87
2018-02-07T19:03:10.050Z,32.85
2018-02-07T19:05:36.689Z,34.25
2018-02-07T19:08:03.328Z,37.47
2018-02-07T19:10:29.968Z,36.78
2018-02-07T19:12:56.598Z,37.15
2018-02-07T19:15:23.408Z,34.45
2018-02-07T19:17:50.256Z,38.90
2018-02-07T19:20:17.085Z,39.97
2018-02-07T19:22:43.888Z,36.80
2018-02-07T19:25:10.916Z,34.47
2018-02-07T19:27:37.720Z,39.35
2018-02-07T19:30:04.394Z,40.63
2018-02-07T19:32:31.086Z,39.95
2018-02-07T19:34:57.822Z,32.75
2018-02-07T19:37:24.525Z,34.45
2018-02-07T19:39:51.350Z,36.70
2018-02-07T19:42:18.006Z,40.05
2018-02-07T19:44:45.119Z,42.22
2018-02-07T19:47:12.030Z,36.17
2018-02-07T19:49:39.100Z,42.10
2018-02-07T19:52:05.745Z,37.92
2018-02-07T19:54:32.395Z,38.03
2018-02-07T19:56:59.036Z,38.58
2018-02-07T19:59:25.742Z,38.58
2018-02-07T20:01:52.378Z,34.28
2018-02-07T20:04:19.014Z,37.55
2018-02-07T20:06:45.655Z,42.05
2018-02-07T20:09:12.293Z,41.22
2018-02-07T20:11:39.050Z,43.20
2018-02-07T20:14:05.757Z,38.08
2018-02-07T20:16:32.703Z,38.65
2018-02-07T20:18:59.413Z,40.42
2018-02-07T20:21:26.153Z,42.03
2018-02-07T20:23:52.787Z,39.65
2018-02-07T20:26:19.430Z,44.95
2018-02-07T20:28:46.069Z,41.47
2018-02-07T20:31:12.727Z,46.58
2018-02-07T20:33:40.061Z,43.83
2018-02-07T20:36:06.733Z,38.75
2018-02-07T20:38:33.415Z,52.08
2018-02-07T20:41:00.094Z,46.33
2018-02-07T20:43:26.862Z,46.58
2018-02-07T20:45:53.503Z,43.08
2018-02-07T20:48:20.169Z,43.25
2018-02-07T20:50:47.203Z,43.97
2018-02-07T20:53:13.880Z,46.50
2018-02-07T20:55:40.523Z,49.58
2018-02-07T20:58:07.172Z,52.53
2018-02-07T21:00:33.809Z,49.85
2018-02-07T21:03:00.448Z,46.25
2018-02-07T21:05:27.130Z,49.90
2018-02-07T21:07:53.734Z,42.25
2018-02-07T21:10:20.370Z,41.67
2018-02-07T21:12:47.001Z,48.22
2018-02-07T21:15:13.642Z,48.03
2018-02-07T21:17:40.279Z,45.30
2018-02-07T21:20:07.303Z,34.38
2018-02-07T21:22:34.086Z,40.42
2018-02-07T21:25:00.908Z,39.75
2018-02-07T21:27:27.619Z,35.30
2018-02-07T21:29:54.270Z,45.45
2018-02-07T21:32:21.007Z,41.25
2018-02-07T21:34:47.639Z,39.15
2018-02-07T21:37:14.296Z,38.35
2018-02-07T21:39:40.946Z,36.03
2018-02-07T21:42:07.590Z,32.50
2018-02-07T21:44:34.227Z,33.70
2018-02-07T21:47:00.882Z,34.78
2018-02-07T21:49:27.523Z,35.25
2018-02-07T21:51:54.161Z,53.10
2018-02-07T21:54:20.814Z,44.80
2018-02-07T21:56:47.877Z,39.40
2018-02-07T21:59:14.583Z,55.17
2018-02-07T22:01:41.218Z,48.83
2018-02-07T22:04:07.854Z,31.58
2018-02-07T22:06:34.740Z,38.97
2018-02-07T22:09:01.424Z,44.10
2018-02-07T22:11:28.066Z,42.50
2018-02-07T22:13:54.962Z,30.05
2018-02-07T22:16:21.594Z,29.63
2018-02-07T22:18:48.252Z,32.40
2018-02-07T22:21:15.290Z,32.30
2018-02-07T22:23:42.366Z,32.38
2018-02-07T22:26:08.995Z,32.00
2018-02-07T22:28:35.644Z,34.67
2018-02-07T22:31:02.284Z,37.92
2018-02-07T22:33:28.966Z,30.45
2018-02-07T22:35:55.608Z,36.33
2018-02-07T22:38:22.258Z,33.63
2018-02-07T22:40:48.883Z,33.67
2018-02-07T22:43:16.108Z,33.35
2018-02-07T22:45:42.786Z,33.30
2018-02-07T22:48:09.427Z,30.17
2018-02-07T22:50:36.076Z,31.20
2018-02-07T22:53:02.750Z,33.75
2018-02-07T22:55:29.385Z,30.10
2018-02-07T22:57:56.022Z,27.33
2018-02-07T23:00:22.660Z,30.85
2018-02-07T23:02:49.301Z,32.60
2018-02-07T23:05:15.938Z,28.90
2018-02-07T23:07:42.573Z,33.63
2018-02-07T23:10:09.215Z,32.85
2018-02-07T23:12:35.849Z,33.33
2018-02-07T23:15:02.469Z,26.70
2018-02-07T23:17:29.106Z,33.47
2018-02-07T23:19:55.738Z,39.80
2018-02-07T23:22:22.374Z,35.25
2018-02-07T23:24:49.026Z,33.30
2018-02-07T23:27:15.792Z,34.65
2018-02-07T23:29:42.423Z,31.75
2018-02-07T23:32:09.060Z,36.72
2018-02-07T23:34:35.712Z,34.33
2018-02-07T23:37:02.359Z,33.78
2018-02-07T23:39:29.004Z,33.97
2018-02-07T23:41:55.656Z,34.20
2018-02-07T23:44:22.293Z,30.17
2018-02-07T23:46:48.954Z,29.95
2018-02-07T23:49:15.641Z,33.20
2018-02-07T23:51:42.312Z,32.25
2018-02-07T23:54:08.943Z,30.27
2018-02-07T23:56:35.598Z,28.73
2018-02-07T23:59:02.234Z,38.13
